Time;durP1;ratioP1;P1;durP2;ratioP2;P2;SDS_P1;SDS_P2;PMS_P1;PMS_P2;Temp;Humidity;BMP_temperature;BMP_pressure;BME280_temperature;BME280_humidity;BME280_pressure;Samples;Min_cycle;Max_cycle;Signal;HPM_P1;HPM_P2
2024/01/05 00:01:37;;;;;;;0.70;0.70;;;;;;;10.43;100.00;99569.25;5070250;28;20195;-80
2024/01/05 00:04:04;;;;;;;0.70;0.70;;;;;;;10.37;100.00;99561.47;5069738;28;20195;-79
2024/01/05 00:06:31;;;;;;;0.70;0.70;;;;;;;10.41;100.00;99571.00;5069942;28;20201;-79
2024/01/05 00:08:58;;;;;;;0.70;0.70;;;;;;;10.53;100.00;99597.81;5069590;28;20210;-80
2024/01/05 00:11:24;;;;;;;0.70;0.70;;;;;;;10.52;100.00;99601.28;5069913;28;20195;-79
2024/01/05 00:13:51;;;;;;;0.80;0.80;;;;;;;10.53;100.00;99610.78;5072694;28;20207;-80
2024/01/05 00:16:20;;;;;;;0.60;0.60;;;;;;;10.11;100.00;99534.44;5073376;28;20224;-79
2024/01/05 00:18:47;;;;;;;0.70;0.70;;;;;;;10.57;100.00;99621.19;5073094;28;20285;-79
2024/01/05 00:21:20;;;;;;;0.70;0.70;;;;;;;10.56;100.00;99618.63;5038490;28;20644;-80
2024/01/05 00:23:47;;;;;;;0.68;0.68;;;;;;;10.57;100.00;99626.38;5054830;28;20219;-80
2024/01/05 00:26:14;;;;;;;1.23;1.23;;;;;;;10.61;100.00;99622.09;5073474;28;20220;-79
2024/01/05 00:28:41;;;;;;;0.70;0.70;;;;;;;10.52;100.00;99619.44;5073113;28;20210;-80
2024/01/05 00:31:10;;;;;;;0.80;0.80;;;;;;;10.11;100.00;99547.38;5072923;28;20203;-79
2024/01/05 00:33:39;;;;;;;0.90;0.90;;;;;;;10.57;100.00;99603.06;5073701;28;20640;-80
2024/01/05 00:36:06;;;;;;;0.70;0.70;;;;;;;10.66;100.00;99615.22;5072878;28;20684;-80
2024/01/05 00:38:33;;;;;;;0.90;0.90;;;;;;;10.63;100.00;99608.28;5073060;28;20602;-80
2024/01/05 00:40:59;;;;;;;0.70;0.70;;;;;;;10.82;100.00;99625.69;5073629;28;20198;-79
2024/01/05 00:43:27;;;;;;;0.60;0.60;;;;;;;10.87;100.00;99641.28;5073937;28;20777;-79
2024/01/05 00:45:54;;;;;;;5.25;1.00;;;;;;;10.76;100.00;99607.53;5073400;28;20897;-79
2024/01/05 00:48:21;;;;;;;0.80;0.80;;;;;;;10.99;100.00;99645.69;5073524;28;20217;-79
2024/01/05 00:50:49;;;;;;;0.75;0.75;;;;;;;10.90;98.86;99605.00;5073460;28;20203;-79
2024/01/05 00:53:16;;;;;;;0.70;0.70;;;;;;;11.15;97.82;99644.91;5073630;28;20690;-80
2024/01/05 00:55:43;;;;;;;0.75;0.75;;;;;;;10.99;97.29;99618.00;5073162;28;20221;-79
2024/01/05 00:58:10;;;;;;;0.70;0.70;;;;;;;11.16;97.46;99655.31;5072845;28;20207;-79
2024/01/05 01:00:36;;;;;;;0.63;0.63;;;;;;;11.17;96.06;99646.66;5073037;28;20603;-80
2024/01/05 01:03:04;;;;;;;0.70;0.70;;;;;;;11.16;95.50;99650.13;5073120;28;20199;-80
2024/01/05 01:05:30;;;;;;;1.17;1.17;;;;;;;11.11;95.54;99656.13;5072970;28;20209;-79
2024/01/05 01:08:00;;;;;;;1.20;1.20;;;;;;;11.19;95.25;99663.13;5072832;28;20202;-80
2024/01/05 01:10:26;;;;;;;0.70;0.70;;;;;;;11.14;95.52;99677.78;5072999;28;20204;-80
2024/01/05 01:12:53;;;;;;;0.70;0.70;;;;;;;10.98;95.89;99659.53;5072521;28;20191;-79
2024/01/05 01:15:20;;;;;;;1.10;1.10;;;;;;;10.86;96.35;99653.41;5072822;28;20226;-80
2024/01/05 01:17:47;;;;;;;0.70;0.70;;;;;;;10.99;96.79;99680.25;5072829;28;20202;-79
2024/01/05 01:20:14;;;;;;;0.60;0.60;;;;;;;10.86;97.30;99678.47;5072876;28;20195;-79
2024/01/05 01:22:40;;;;;;;0.70;0.70;;;;;;;10.90;98.11;99686.28;5072287;28;20203;-80
2024/01/05 01:25:09;;;;;;;0.70;0.70;;;;;;;10.80;99.31;99679.28;5072286;28;20647;-79
2024/01/05 01:27:36;;;;;;;0.60;0.60;;;;;;;10.55;100.00;99666.13;5072042;28;20207;-80
2024/01/05 01:30:03;;;;;;;0.80;0.80;;;;;;;10.66;100.00;99675.72;5072612;28;20207;-80
2024/01/05 01:32:30;;;;;;;0.70;0.70;;;;;;;10.68;100.00;99676.59;5073230;28;20284;-80
2024/01/05 01:34:57;;;;;;;0.70;0.70;;;;;;;10.84;99.04;99682.78;5072661;28;20230;-80
2024/01/05 01:37:23;;;;;;;0.85;0.85;;;;;;;10.90;98.84;99682.81;5036820;28;20226;-80
2024/01/05 01:39:50;;;;;;;1.35;1.35;;;;;;;10.89;99.00;99688.84;5072317;28;20199;-79
2024/01/05 01:42:18;;;;;;;0.70;0.70;;;;;;;10.92;99.93;99683.69;5072404;28;20199;-78
2024/01/05 01:44:45;;;;;;;0.63;0.63;;;;;;;10.76;99.92;99677.53;5072144;28;20576;-79
2024/01/05 01:47:12;;;;;;;0.70;0.70;;;;;;;10.72;99.94;99674.91;5071843;28;20277;-78
2024/01/05 01:49:39;;;;;;;0.70;0.70;;;;;;;10.80;100.00;99693.97;5071851;28;20203;-80
2024/01/05 01:52:07;;;;;;;0.68;0.68;;;;;;;10.86;100.00;99696.59;5069754;28;20238;-79
2024/01/05 01:54:35;;;;;;;0.70;0.70;;;;;;;10.82;100.00;99700.03;5072148;28;20213;-79
2024/01/05 01:57:03;;;;;;;0.80;0.80;;;;;;;10.87;100.00;99703.53;5036199;28;20234;-80
2024/01/05 01:59:32;;;;;;;0.80;0.80;;;;;;;10.80;99.52;99673.22;5071942;28;20206;-79
2024/01/05 02:02:00;;;;;;;0.65;0.65;;;;;;;10.95;99.78;99702.72;5070650;28;20210;-79
2024/01/05 02:04:27;;;;;;;0.60;0.60;;;;;;;10.87;99.06;99701.81;5071832;28;20547;-80
2024/01/05 02:06:55;;;;;;;0.70;0.70;;;;;;;10.68;100.00;99688.69;5071732;28;20575;-80
2024/01/05 02:09:22;;;;;;;0.70;0.70;;;;;;;10.72;100.00;99703.41;5053063;28;20203;-80
2024/01/05 02:11:49;;;;;;;0.90;0.90;;;;;;;10.81;100.00;99717.31;5071885;28;20205;-80
2024/01/05 02:14:16;;;;;;;0.70;0.70;;;;;;;10.54;100.00;99674.75;5071863;28;20206;-79
2024/01/05 02:16:44;;;;;;;0.60;0.60;;;;;;;10.86;100.00;99709.56;5071408;28;20230;-79
2024/01/05 02:19:11;;;;;;;0.60;0.60;;;;;;;10.77;99.50;99699.16;5036415;28;20686;-79
2024/01/05 02:21:43;;;;;;;0.60;0.60;;;;;;;10.95;99.38;99726.06;5071552;28;20203;-80
2024/01/05 02:24:11;;;;;;;0.70;0.70;;;;;;;10.89;99.52;99730.34;5071838;28;20194;-80
2024/01/05 02:26:38;;;;;;;0.70;0.70;;;;;;;10.77;100.00;99733.69;5071305;28;22022;-80
2024/01/05 02:29:05;;;;;;;0.70;0.70;;;;;;;10.79;100.00;99731.13;5071483;28;20651;-79
2024/01/05 02:31:31;;;;;;;0.70;0.70;;;;;;;10.71;99.26;99714.63;5071305;28;20325;-81
2024/01/05 02:33:58;;;;;;;0.70;0.70;;;;;;;10.76;99.11;99733.69;5071100;28;20199;-79
2024/01/05 02:36:25;;;;;;;0.80;0.80;;;;;;;10.75;99.06;99737.16;5070487;28;20602;-81
2024/01/05 02:38:52;;;;;;;0.70;0.70;;;;;;;10.78;99.26;99742.34;5071795;28;20736;-79
2024/01/05 02:41:20;;;;;;;1.10;0.98;;;;;;;10.77;99.84;99756.19;5071594;28;20199;-79
2024/01/05 02:43:46;;;;;;;0.80;0.80;;;;;;;10.60;100.00;99762.91;5071261;28;20202;-79
2024/01/05 02:46:13;;;;;;;0.70;0.70;;;;;;;10.44;100.00;99744.66;5071704;28;20210;-80
2024/01/05 02:48:40;;;;;;;0.70;0.70;;;;;;;10.59;100.00;99758.63;5071553;28;20198;-80
2024/01/05 02:51:07;;;;;;;0.88;0.88;;;;;;;10.44;100.00;99741.19;5072655;28;20206;-80
2024/01/05 02:53:33;;;;;;;0.80;0.80;;;;;;;10.50;100.00;99748.13;5071413;28;20202;-80
2024/01/05 02:56:00;;;;;;;0.80;0.80;;;;;;;10.51;100.00;99747.28;5071225;28;20222;-80
2024/01/05 02:58:28;;;;;;;0.70;0.70;;;;;;;10.48;100.00;99752.44;5071551;28;20203;-80
2024/01/05 03:00:55;;;;;;;0.80;0.80;;;;;;;10.41;100.00;99757.59;5053443;28;20195;-79
2024/01/05 03:03:22;;;;;;;0.70;0.70;;;;;;;10.37;100.00;99761.00;5043783;28;20221;-79
2024/01/05 03:05:49;;;;;;;0.80;0.80;;;;;;;10.38;100.00;99761.88;5080181;28;20210;-82
2024/01/05 03:08:15;;;;;;;0.60;0.60;;;;;;;10.30;100.00;99764.38;5044096;28;20202;-80
2024/01/05 03:10:42;;;;;;;0.70;0.70;;;;;;;10.35;100.00;99767.88;5081210;28;20203;-80
2024/01/05 03:13:09;;;;;;;0.68;0.68;;;;;;;9.83;100.00;99690.41;5072297;28;20199;-80
2024/01/05 03:15:37;;;;;;;0.70;0.70;;;;;;;10.23;100.00;99752.19;5072026;28;20635;-79
2024/01/05 03:18:04;;;;;;;2.38;1.90;;;;;;;10.23;100.00;99779.81;5072481;28;20202;-80
2024/01/05 03:20:31;;;;;;;1.45;1.23;;;;;;;10.20;100.00;99780.63;5073154;28;20209;-79
2024/01/05 03:22:58;;;;;;;0.65;0.65;;;;;;;10.17;100.00;99796.16;5072874;28;20186;-79
2024/01/05 03:25:25;;;;;;;0.80;0.80;;;;;;;10.16;100.00;99794.44;5072666;28;20206;-79
2024/01/05 03:27:51;;;;;;;0.70;0.70;;;;;;;10.08;100.00;99803.78;5071507;28;20206;-79
2024/01/05 03:30:18;;;;;;;0.70;0.70;;;;;;;9.54;100.00;99710.75;5071070;28;20214;-79
2024/01/05 03:32:46;;;;;;;0.68;0.68;;;;;;;9.90;100.00;99782.84;5071031;28;20635;-79
2024/01/05 03:35:13;;;;;;;0.70;0.70;;;;;;;10.06;100.00;99810.66;5070134;28;20273;-79
2024/01/05 03:37:40;;;;;;;1.40;1.38;;;;;;;10.02;100.00;99814.09;5070113;28;20227;-79
2024/01/05 03:40:08;;;;;;;0.70;0.70;;;;;;;9.96;100.00;99809.69;5070022;28;20210;-80
2024/01/05 03:42:35;;;;;;;8.35;2.20;;;;;;;9.78;100.00;99808.56;5051889;28;20207;-79
2024/01/05 03:45:02;;;;;;;0.70;0.70;;;;;;;9.52;100.00;99800.44;5070407;28;20195;-79
2024/01/05 03:47:28;;;;;;;0.70;0.70;;;;;;;9.32;100.00;99805.31;5073484;28;20203;-79
2024/01/05 03:49:56;;;;;;;1.10;1.10;;;;;;;8.86;100.00;99733.03;5074557;28;20206;-79
2024/01/05 03:52:23;;;;;;;0.70;0.70;;;;;;;9.33;100.00;99817.41;5074991;28;20214;-79
2024/01/05 03:54:50;;;;;;;0.70;0.70;;;;;;;8.78;100.00;99737.19;5073780;28;20646;-79
2024/01/05 03:57:17;;;;;;;0.70;0.70;;;;;;;9.14;100.00;99832.59;5074139;28;20706;-79
2024/01/05 03:59:43;;;;;;;2.50;1.25;;;;;;;9.00;100.00;99832.38;5073857;28;20207;-77
2024/01/05 04:02:10;;;;;;;0.70;0.70;;;;;;;8.84;100.00;99825.19;5074344;28;20253;-77
2024/01/05 04:04:37;;;;;;;3.00;2.47;;;;;;;8.80;100.00;99832.03;5074887;28;20213;-78
2024/01/05 04:07:06;;;;;;;1.33;1.30;;;;;;;8.92;100.00;99821.88;5074260;28;20199;-81
2024/01/05 04:09:33;;;;;;;0.90;0.90;;;;;;;8.85;100.00;99826.91;5074693;28;20203;-80
2024/01/05 04:12:00;;;;;;;1.30;1.30;;;;;;;8.90;100.00;99840.81;5074232;28;20207;-80
2024/01/05 04:14:27;;;;;;;0.90;0.90;;;;;;;8.92;100.00;99846.88;5074172;28;20239;-79
2024/01/05 04:16:53;;;;;;;1.10;1.10;;;;;;;9.39;100.00;99834.72;5074236;28;20229;-79
2024/01/05 04:19:20;;;;;;;1.05;0.98;;;;;;;9.02;100.00;99811.72;5074085;28;20229;-80
2024/01/05 04:21:47;;;;;;;0.80;0.80;;;;;;;9.14;100.00;99855.88;5073922;28;20689;-79
2024/01/05 04:24:15;;;;;;;2.70;0.95;;;;;;;9.02;100.00;99851.38;5074000;28;20712;-78
2024/01/05 04:26:42;;;;;;;0.60;0.60;;;;;;;8.80;100.00;99846.66;5055048;28;20563;-79
2024/01/05 04:29:09;;;;;;;0.70;0.70;;;;;;;8.76;100.00;99874.16;5074544;28;20229;-80
2024/01/05 04:31:36;;;;;;;0.70;0.70;;;;;;;8.42;100.00;99854.56;5074381;28;20560;-80
2024/01/05 04:34:03;;;;;;;0.97;0.97;;;;;;;8.25;100.00;99865.34;5075255;28;20199;-79
2024/01/05 04:36:31;;;;;;;0.97;0.97;;;;;;;8.02;100.00;99872.63;5074902;28;20230;-79
2024/01/05 04:38:57;;;;;;;0.70;0.70;;;;;;;8.00;100.00;99884.63;5073976;28;20207;-78
2024/01/05 04:41:26;;;;;;;0.90;0.90;;;;;;;7.66;100.00;99853.75;5073228;28;20198;-78
2024/01/05 04:43:53;;;;;;;0.70;0.70;;;;;;;7.67;100.00;99894.19;5072734;28;20234;-80
2024/01/05 04:46:19;;;;;;;0.70;0.70;;;;;;;7.36;100.00;99839.28;5070861;28;20199;-79
2024/01/05 04:48:46;;;;;;;1.67;1.57;;;;;;;7.53;100.00;99859.47;5073095;28;20190;-78
2024/01/05 04:51:13;;;;;;;1.10;1.10;;;;;;;7.66;100.00;99876.97;5072891;28;20207;-78
2024/01/05 04:53:40;;;;;;;1.03;1.03;;;;;;;7.46;100.00;99859.31;5073154;28;20203;-79
2024/01/05 04:56:07;;;;;;;1.17;1.00;;;;;;;7.63;100.00;99880.34;5073832;28;20198;-80
2024/01/05 04:58:35;;;;;;;0.80;0.80;;;;;;;7.75;100.00;99869.41;5072459;28;20211;-79
2024/01/05 05:01:02;;;;;;;0.70;0.70;;;;;;;7.80;100.00;99871.28;5073110;28;20199;-80
2024/01/05 05:03:30;;;;;;;1.53;1.43;;;;;;;7.71;100.00;99854.69;5073238;28;20194;-80
2024/01/05 05:05:57;;;;;;;0.70;0.70;;;;;;;8.13;100.00;99891.81;5073364;28;20580;-81
2024/01/05 05:08:24;;;;;;;0.70;0.70;;;;;;;8.21;100.00;99861.84;5073706;28;20576;-81
2024/01/05 05:10:51;;;;;;;1.10;1.10;;;;;;;8.58;100.00;99891.03;5073387;28;20202;-81
2024/01/05 05:13:18;;;;;;;0.80;0.80;;;;;;;8.81;100.00;99892.38;5073391;28;20222;-81
2024/01/05 05:15:46;;;;;;;1.07;1.07;;;;;;;8.84;100.00;99884.66;5073207;28;20747;-81
2024/01/05 05:18:13;;;;;;;0.70;0.70;;;;;;;9.03;100.00;99927.22;5073159;28;20234;-80
2024/01/05 05:20:39;;;;;;;1.40;1.10;;;;;;;9.01;100.00;99926.34;5073075;28;20593;-81
2024/01/05 05:23:06;;;;;;;0.70;0.70;;;;;;;9.04;100.00;99939.31;5072368;28;20225;-80
2024/01/05 05:25:33;;;;;;;0.80;0.80;;;;;;;9.03;100.00;99941.03;5072000;28;20592;-79
2024/01/05 05:28:00;;;;;;;0.90;0.90;;;;;;;9.12;100.00;99942.91;5072765;28;20242;-79
2024/01/05 05:30:27;;;;;;;0.80;0.80;;;;;;;9.11;100.00;99952.38;5072514;28;20256;-80
2024/01/05 05:32:55;;;;;;;0.95;0.95;;;;;;;9.16;100.00;99965.41;5072414;28;20574;-80
2024/01/05 05:35:22;;;;;;;1.55;1.45;;;;;;;9.10;100.00;99966.16;5072093;28;20250;-79
2024/01/05 05:37:48;;;;;;;0.80;0.80;;;;;;;9.02;100.00;99965.16;5072311;28;20598;-79
2024/01/05 05:40:15;;;;;;;0.80;0.80;;;;;;;9.06;100.00;99968.69;5072189;28;20748;-82
2024/01/05 05:42:43;;;;;;;0.90;0.90;;;;;;;8.98;100.00;99968.53;5073745;28;20319;-82
2024/01/05 05:45:10;;;;;;;0.70;0.70;;;;;;;9.04;100.00;99970.34;5073392;28;20203;-82
2024/01/05 05:47:36;;;;;;;0.70;0.70;;;;;;;8.93;100.00;99949.44;5074945;28;20210;-82
2024/01/05 05:50:06;;;;;;;0.80;0.80;;;;;;;9.12;100.00;99964.50;5073524;28;20690;-83
2024/01/05 05:52:34;;;;;;;0.70;0.70;;;;;;;9.16;100.00;99968.88;5073787;28;20195;-79
2024/01/05 05:55:01;;;;;;;0.70;0.70;;;;;;;9.20;100.00;99968.09;5072471;28;20203;-78
2024/01/05 05:57:28;;;;;;;0.80;0.80;;;;;;;9.05;100.00;99947.13;5072034;28;20227;-78
2024/01/05 05:59:55;;;;;;;0.93;0.93;;;;;;;9.22;100.00;99974.16;5071678;28;20674;-78
2024/01/05 06:02:21;;;;;;;0.70;0.70;;;;;;;9.20;100.00;99982.75;5072078;28;20675;-78
2024/01/05 06:04:48;;;;;;;0.70;0.70;;;;;;;9.10;100.00;99966.16;5072074;28;20726;-79
2024/01/05 06:07:17;;;;;;;0.70;0.70;;;;;;;9.27;100.00;99988.06;5072123;28;20551;-79
2024/01/05 06:09:43;;;;;;;1.03;1.03;;;;;;;9.24;100.00;99994.91;5071454;28;20662;-77
2024/01/05 06:12:10;;;;;;;0.70;0.70;;;;;;;9.08;100.00;100003.19;5067379;28;20681;-78
2024/01/05 06:14:38;;;;;;;0.80;0.80;;;;;;;9.17;100.00;100011.97;5070883;28;20248;-77
2024/01/05 06:17:05;;;;;;;0.90;0.90;;;;;;;9.21;100.00;100012.91;5036054;28;20717;-77
2024/01/05 06:19:31;;;;;;;0.73;0.73;;;;;;;9.21;100.00;100006.03;5071416;28;20210;-77
2024/01/05 06:21:59;;;;;;;0.90;0.90;;;;;;;9.35;100.00;100016.63;5071521;28;20206;-70
2024/01/05 06:24:29;;;;;;;1.43;1.33;;;;;;;9.56;100.00;100014.44;5071469;28;20213;-77
2024/01/05 06:26:55;;;;;;;1.00;1.00;;;;;;;9.51;100.00;100017.81;5071518;28;20231;-77
2024/01/05 06:29:22;;;;;;;1.00;1.00;;;;;;;9.47;100.00;99993.56;5070520;28;20206;-72
2024/01/05 06:31:49;;;;;;;1.60;1.53;;;;;;;9.57;100.00;100017.91;5075054;28;20210;-76
2024/01/05 06:34:16;;;;;;;0.70;0.70;;;;;;;9.63;100.00;100007.69;5081247;28;20237;-72
2024/01/05 06:36:43;;;;;;;1.45;1.45;;;;;;;9.72;100.00;100020.75;5069873;28;20696;-75
2024/01/05 06:39:10;;;;;;;1.42;1.42;;;;;;;9.72;100.00;100024.22;5070723;28;20281;-76
2024/01/05 06:41:39;;;;;;;1.10;1.10;;;;;;;9.74;100.00;100013.88;5071190;28;20199;-76
2024/01/05 06:44:06;;;;;;;0.75;0.75;;;;;;;9.83;100.00;100042.53;5070692;28;20206;-75
2024/01/05 06:46:33;;;;;;;1.20;1.20;;;;;;;9.87;100.00;100046.94;5070460;28;20199;-75
2024/01/05 06:49:00;;;;;;;0.70;0.70;;;;;;;9.86;100.00;100043.47;5070685;28;20736;-75
2024/01/05 06:51:29;;;;;;;1.02;1.02;;;;;;;9.95;100.00;100035.84;5070533;28;20210;-75
2024/01/05 06:53:56;;;;;;;0.80;0.80;;;;;;;10.03;100.00;100048.91;5070582;28;20674;-75
2024/01/05 06:56:23;;;;;;;1.13;1.13;;;;;;;10.17;100.00;100039.69;5070574;28;20198;-75
2024/01/05 06:58:52;;;;;;;0.70;0.70;;;;;;;10.35;100.00;100045.16;5070583;28;20226;-75
2024/01/05 07:01:19;;;;;;;0.70;0.70;;;;;;;10.32;100.00;100021.78;5070870;28;20214;-76
2024/01/05 07:03:46;;;;;;;0.80;0.80;;;;;;;10.50;100.00;100039.31;5070782;28;20199;-75
2024/01/05 07:06:12;;;;;;;0.65;0.65;;;;;;;10.54;100.00;100032.47;5070559;28;20283;-76
2024/01/05 07:08:39;;;;;;;0.60;0.60;;;;;;;10.61;100.00;100044.66;5070827;28;20202;-79
2024/01/05 07:11:06;;;;;;;0.70;0.70;;;;;;;10.29;99.54;99974.22;5071036;28;20238;-78
2024/01/05 07:13:33;;;;;;;0.70;0.70;;;;;;;10.78;99.33;100053.53;5071276;28;20563;-78
2024/01/05 07:16:01;;;;;;;0.82;0.82;;;;;;;10.68;98.83;100030.94;5071046;28;20662;-77
2024/01/05 07:18:28;;;;;;;0.90;0.90;;;;;;;10.76;97.75;100029.31;5071149;28;20226;-79
2024/01/05 07:20:55;;;;;;;0.60;0.60;;;;;;;10.95;97.58;100054.66;5071085;28;20210;-79
2024/01/05 07:23:21;;;;;;;0.70;0.70;;;;;;;10.77;97.29;100015.50;5074897;28;20214;-79
2024/01/05 07:25:48;;;;;;;0.75;0.75;;;;;;;11.07;95.59;100051.31;5074917;28;20210;-79
2024/01/05 07:28:15;;;;;;;0.60;0.60;;;;;;;11.05;94.17;100030.56;5074524;28;20635;-78
2024/01/05 07:30:42;;;;;;;0.90;0.90;;;;;;;11.28;93.01;100049.84;5074983;28;20259;-79
2024/01/05 07:33:10;;;;;;;0.80;0.80;;;;;;;11.15;92.75;100003.00;5074568;28;20248;-78
2024/01/05 07:35:37;;;;;;;0.70;0.70;;;;;;;11.38;92.34;100049.09;5074208;28;20234;-78
2024/01/05 07:38:04;;;;;;;0.60;0.60;;;;;;;11.49;91.71;100058.72;5074311;28;20233;-80
2024/01/05 07:40:31;;;;;;;0.80;0.80;;;;;;;11.63;89.53;100060.63;5074531;28;20203;-85
2024/01/05 07:42:58;;;;;;;0.70;0.70;;;;;;;11.80;88.77;100063.44;5074469;28;20308;-79
2024/01/05 07:45:25;;;;;;;0.63;0.63;;;;;;;11.86;86.76;100069.56;5074308;28;20285;-79
2024/01/05 07:47:54;;;;;;;0.75;0.75;;;;;;;11.87;86.40;100049.66;5074007;28;20598;-77
2024/01/05 07:50:22;;;;;;;1.58;1.48;;;;;;;12.08;85.81;100069.75;5055849;28;20206;-77
2024/01/05 07:52:49;;;;;;;1.20;1.20;;;;;;;12.00;85.07;100061.00;5055173;28;20207;-77
2024/01/05 07:55:16;;;;;;;0.73;0.73;;;;;;;12.11;84.58;100073.25;5055324;28;20231;-77
2024/01/05 07:57:44;;;;;;;0.70;0.70;;;;;;;12.13;85.22;100068.91;5073888;28;20233;-78
2024/01/05 08:00:12;;;;;;;0.90;0.90;;;;;;;12.11;84.71;100059.38;5074205;28;20209;-78
2024/01/05 08:02:39;;;;;;;0.75;0.75;;;;;;;12.22;84.97;100079.41;5073938;28;20203;-77
2024/01/05 08:05:07;;;;;;;1.23;0.80;;;;;;;12.28;84.61;100078.56;5073748;28;20203;-77
2024/01/05 08:07:35;;;;;;;0.70;0.70;;;;;;;12.38;84.34;100085.59;5073741;28;20257;-77
2024/01/05 08:10:02;;;;;;;0.70;0.70;;;;;;;12.32;82.88;100073.41;5073726;28;20285;-77
2024/01/05 08:12:28;;;;;;;0.70;0.70;;;;;;;12.46;82.50;100093.44;5073898;28;20210;-77
2024/01/05 08:14:55;;;;;;;0.60;0.60;;;;;;;12.51;82.25;100086.56;5074346;28;20203;-77
2024/01/05 08:17:22;;;;;;;0.70;0.70;;;;;;;12.54;81.39;100097.84;5073622;28;20210;-77
2024/01/05 08:19:49;;;;;;;0.70;0.70;;;;;;;12.56;81.58;100095.25;5038266;28;20203;-77
2024/01/05 08:22:16;;;;;;;0.80;0.80;;;;;;;12.58;81.39;100103.97;5073508;28;20221;-77
2024/01/05 08:24:45;;;;;;;0.70;0.70;;;;;;;12.66;80.58;100091.88;5073701;28;20210;-78
2024/01/05 08:27:11;;;;;;;0.90;0.90;;;;;;;12.73;80.54;100104.94;5073659;28;20203;-77
2024/01/05 08:29:38;;;;;;;1.70;1.60;;;;;;;12.77;80.10;100098.88;5073596;28;20206;-78
2024/01/05 08:32:06;;;;;;;0.70;0.70;;;;;;;12.62;80.15;100095.31;5073014;28;20209;-77
2024/01/05 08:34:33;;;;;;;0.80;0.80;;;;;;;12.83;79.78;100118.88;5072240;28;20258;-78
2024/01/05 08:36:59;;;;;;;1.02;1.02;;;;;;;12.92;78.98;100108.50;5073558;28;20207;-79
2024/01/05 08:39:26;;;;;;;0.73;0.73;;;;;;;12.89;77.88;100095.47;5037923;28;20226;-77
2024/01/05 08:41:54;;;;;;;0.60;0.60;;;;;;;13.05;78.30;100102.53;5054513;28;20198;-78
2024/01/05 08:44:22;;;;;;;0.60;0.60;;;;;;;13.02;77.73;100092.06;5073078;28;20203;-77
2024/01/05 08:46:48;;;;;;;0.85;0.85;;;;;;;13.02;76.89;100089.47;5073118;28;20195;-77
2024/01/05 08:49:15;;;;;;;0.80;0.80;;;;;;;13.14;76.75;100097.38;5054699;28;20207;-77
2024/01/05 08:51:43;;;;;;;0.70;0.70;;;;;;;13.30;76.94;100112.22;5073049;28;20202;-77
2024/01/05 08:54:11;;;;;;;0.70;0.70;;;;;;;13.27;76.50;100100.94;5073049;28;20331;-77
2024/01/05 08:56:37;;;;;;;0.60;0.60;;;;;;;13.32;76.53;100110.50;5072961;28;20206;-77
2024/01/05 08:59:06;;;;;;;1.00;1.00;;;;;;;13.44;75.77;100114.88;5073053;28;20737;-77
2024/01/05 09:01:33;;;;;;;0.70;0.70;;;;;;;13.45;74.92;100118.38;5072982;28;20207;-77
2024/01/05 09:04:00;;;;;;;0.60;0.60;;;;;;;13.55;74.75;100114.94;5072868;28;20199;-77
2024/01/05 09:06:28;;;;;;;0.70;0.70;;;;;;;13.61;74.83;100115.81;5072749;28;20600;-77
2024/01/05 09:08:55;;;;;;;0.60;0.60;;;;;;;13.68;74.31;100111.50;5072892;28;20199;-77
2024/01/05 09:11:21;;;;;;;0.60;0.60;;;;;;;13.71;75.25;100119.31;5072757;28;20203;-78
2024/01/05 09:13:48;;;;;;;0.50;0.50;;;;;;;13.28;76.21;100043.63;5072502;28;20243;-77
2024/01/05 09:16:16;;;;;;;0.60;0.60;;;;;;;13.82;75.82;100125.44;5072702;28;20206;-78
2024/01/05 09:18:43;;;;;;;0.60;0.60;;;;;;;13.81;75.83;100144.53;5073029;28;20219;-77
2024/01/05 09:21:12;;;;;;;0.80;0.80;;;;;;;13.85;75.78;100136.72;5072654;28;20201;-78
2024/01/05 09:23:39;;;;;;;0.60;0.60;;;;;;;13.86;76.27;100138.47;5072324;28;20708;-78
2024/01/05 09:26:06;;;;;;;3.08;1.77;;;;;;;13.89;76.59;100132.38;5072324;28;20242;-78
2024/01/05 09:28:32;;;;;;;0.70;0.70;;;;;;;13.93;77.40;100123.72;5072460;28;20244;-78
2024/01/05 09:30:59;;;;;;;0.70;0.70;;;;;;;13.89;76.98;100117.63;5037144;28;20203;-77
2024/01/05 09:33:27;;;;;;;0.88;0.88;;;;;;;14.08;77.14;100134.19;5072709;28;20313;-77
2024/01/05 09:35:54;;;;;;;0.75;0.75;;;;;;;14.03;76.28;100128.06;5072212;28;20238;-77
2024/01/05 09:38:21;;;;;;;0.70;0.70;;;;;;;14.12;76.27;100128.09;5072429;28;20233;-78
2024/01/05 09:40:52;;;;;;;0.70;0.70;;;;;;;14.14;75.04;100123.75;5072210;28;20203;-77
2024/01/05 09:43:22;;;;;;;0.70;0.70;;;;;;;14.22;75.30;100116.81;5053444;28;20698;-76
2024/01/05 09:45:50;;;;;;;0.85;0.85;;;;;;;14.20;73.80;100097.66;5080987;28;20199;-76
2024/01/05 09:48:19;;;;;;;0.60;0.60;;;;;;;14.35;72.16;100113.38;5081967;28;20238;-76
2024/01/05 09:50:52;;;;;;;0.70;0.70;;;;;;;14.25;71.82;100111.59;5083139;28;20206;-77
2024/01/05 09:53:19;;;;;;;0.70;0.70;;;;;;;14.45;70.41;100108.16;5073196;28;20234;-76
2024/01/05 09:55:48;;;;;;;0.65;0.65;;;;;;;14.42;69.54;100084.66;5072165;28;20207;-76
2024/01/05 09:58:14;;;;;;;0.60;0.60;;;;;;;14.53;68.84;100106.41;5072143;28;20222;-77
2024/01/05 10:00:44;;;;;;;0.60;0.60;;;;;;;14.44;68.65;100075.13;5072687;28;20225;-77
2024/01/05 10:03:14;;;;;;;0.60;0.60;;;;;;;14.72;67.71;100097.69;5072028;28;20663;-77
2024/01/05 10:05:41;;;;;;;0.80;0.80;;;;;;;14.67;66.05;100089.84;5071613;28;20331;-77
2024/01/05 10:08:10;;;;;;;0.60;0.60;;;;;;;14.68;66.47;100081.16;5071655;28;20550;-77
2024/01/05 10:10:45;;;;;;;0.73;0.73;;;;;;;14.76;66.05;100095.06;5071589;28;20202;-77
2024/01/05 10:13:12;;;;;;;0.65;0.65;;;;;;;14.60;65.30;100066.38;5071600;28;20616;-77
2024/01/05 10:15:52;;;;;;;0.60;0.60;;;;;;;14.80;65.13;100082.88;5071677;28;20202;-77
2024/01/05 10:18:19;;;;;;;0.73;0.73;;;;;;;14.87;64.32;100082.00;5071311;28;20612;-77
2024/01/05 10:20:46;;;;;;;1.65;1.13;;;;;;;14.92;63.05;100085.47;5071086;28;20201;-71
2024/01/05 10:23:14;;;;;;;0.68;0.68;;;;;;;14.93;62.91;100081.97;5071163;28;20202;-72
2024/01/05 10:25:41;;;;;;;1.70;1.70;;;;;;;15.12;63.48;100083.69;5052122;28;20209;-72
2024/01/05 10:28:21;;;;;;;0.98;0.98;;;;;;;15.25;61.93;100080.13;5071235;28;20195;-73
2024/01/05 10:30:48;;;;;;;0.93;0.93;;;;;;;14.79;61.35;100000.22;5021850;28;20207;-76
2024/01/05 10:33:16;;;;;;;0.88;0.88;;;;;;;15.14;61.25;100074.06;5071369;28;20203;-73
2024/01/05 10:35:43;;;;;;;1.00;1.00;;;;;;;15.17;62.62;100076.66;5036327;28;20241;-80
2024/01/05 10:38:11;;;;;;;1.48;1.48;;;;;;;15.11;61.36;100050.59;5057442;28;20203;-73
2024/01/05 10:40:39;;;;;;;7.75;0.90;;;;;;;14.74;61.03;99991.53;5070955;28;20585;-78
2024/01/05 10:43:11;;;;;;;1.52;1.42;;;;;;;15.27;60.96;100067.91;5071005;28;20195;-79
2024/01/05 10:45:39;;;;;;;0.70;0.70;;;;;;;15.20;60.71;100053.16;5052443;28;20234;-76
2024/01/05 10:48:08;;;;;;;1.02;1.02;;;;;;;15.34;61.18;100042.63;5071155;28;20563;-81
2024/01/05 10:50:37;;;;;;;0.80;0.80;;;;;;;14.98;60.77;99985.38;5052718;28;20202;-76
2024/01/05 10:53:08;;;;;;;0.70;0.70;;;;;;;15.22;60.68;100030.53;5071030;28;20214;-77
2024/01/05 10:55:36;;;;;;;0.60;0.60;;;;;;;15.55;70.29;100052.16;5070424;28;20260;-72
2024/01/05 10:58:06;;;;;;;0.82;0.82;;;;;;;15.65;61.40;100051.22;5070451;28;20210;-77
2024/01/05 11:00:33;;;;;;;0.60;0.60;;;;;;;15.63;60.64;100050.34;5070636;28;20206;-76
2024/01/05 11:03:10;;;;;;;0.63;0.63;;;;;;;15.63;60.38;100045.13;5070828;28;20225;-75
2024/01/05 11:05:40;;;;;;;0.60;0.60;;;;;;;15.69;60.16;100042.50;5070824;28;20202;-76
2024/01/05 11:08:16;;;;;;;0.60;0.60;;;;;;;15.64;60.66;100041.63;5070821;28;20202;-76
2024/01/05 11:10:55;;;;;;;0.75;0.75;;;;;;;15.59;58.22;100043.44;5053080;28;20206;-76
2024/01/05 11:13:53;;;;;;;0.70;0.70;;;;;;;15.60;57.92;100034.69;5070833;28;20202;-76
2024/01/05 11:17:01;;;;;;;0.60;0.60;;;;;;;15.71;57.71;100032.88;5039764;28;20203;-76
2024/01/05 11:19:49;;;;;;;0.70;0.70;;;;;;;15.63;56.47;100022.47;5060776;28;20260;-76
2024/01/05 11:22:22;;;;;;;0.52;0.52;;;;;;;15.66;55.92;100030.28;5070783;28;20203;-80
2024/01/05 11:24:50;;;;;;;0.50;0.50;;;;;;;15.71;55.91;100032.88;5070491;28;20686;-79
2024/01/05 11:27:30;;;;;;;0.60;0.60;;;;;;;15.80;56.11;100023.22;5070493;28;20199;-78
2024/01/05 11:29:59;;;;;;;0.60;0.60;;;;;;;15.85;56.77;100029.28;5071031;28;20259;-78